sensor_id;sensor_type;location;lat;lon;timestamp;pressure;altitude;pressure_sealevel;temperature;humidity
5455;BME280;2750;49.050;9.250;2023-02-22T00:00:41;98741.16;;;7.61;85.67
5455;BME280;2750;49.050;9.250;2023-02-22T00:05:44;98739.91;;;7.48;86.05
5455;BME280;2750;49.050;9.250;2023-02-22T00:10:47;98729.38;;;7.30;86.47
5455;BME280;2750;49.050;9.250;2023-02-22T00:15:51;98727.47;;;7.35;85.85
5455;BME280;2750;49.050;9.250;2023-02-22T00:20:53;98721.50;;;7.33;85.92
5455;BME280;2750;49.050;9.250;2023-02-22T00:25:56;98721.25;;;7.15;86.58
5455;BME280;2750;49.050;9.250;2023-02-22T00:30:59;98718.00;;;7.10;87.21
5455;BME280;2750;49.050;9.250;2023-02-22T00:36:01;98710.66;;;6.72;87.81
5455;BME280;2750;49.050;9.250;2023-02-22T00:41:03;98710.78;;;6.41;88.42
5455;BME280;2750;49.050;9.250;2023-02-22T00:46:06;98714.19;;;5.85;90.31
5455;BME280;2750;49.050;9.250;2023-02-22T00:51:07;98706.69;;;6.08;90.25
5455;BME280;2750;49.050;9.250;2023-02-22T00:56:09;98695.72;;;6.29;88.44
5455;BME280;2750;49.050;9.250;2023-02-22T01:01:12;98691.50;;;6.27;88.62
5455;BME280;2750;49.050;9.250;2023-02-22T01:06:14;98694.56;;;6.39;87.90
5455;BME280;2750;49.050;9.250;2023-02-22T01:11:16;98682.69;;;6.34;89.24
5455;BME280;2750;49.050;9.250;2023-02-22T01:16:19;98675.56;;;6.42;88.64
5455;BME280;2750;49.050;9.250;2023-02-22T01:21:21;98673.13;;;6.37;88.95
5455;BME280;2750;49.050;9.250;2023-02-22T01:26:23;98658.88;;;5.99;89.18
5455;BME280;2750;49.050;9.250;2023-02-22T01:31:26;98662.53;;;5.92;90.20
5455;BME280;2750;49.050;9.250;2023-02-22T01:36:28;98668.53;;;5.91;90.61
5455;BME280;2750;49.050;9.250;2023-02-22T01:41:30;98657.13;;;6.00;89.73
5455;BME280;2750;49.050;9.250;2023-02-22T01:46:33;98660.38;;;6.33;88.22
5455;BME280;2750;49.050;9.250;2023-02-22T01:51:37;98655.66;;;6.47;87.50
5455;BME280;2750;49.050;9.250;2023-02-22T01:56:45;98651.44;;;6.44;87.73
5455;BME280;2750;49.050;9.250;2023-02-22T02:01:49;98649.06;;;6.38;87.44
5455;BME280;2750;49.050;9.250;2023-02-22T02:06:51;98640.84;;;6.27;87.79
5455;BME280;2750;49.050;9.250;2023-02-22T02:11:53;98635.19;;;6.42;87.26
5455;BME280;2750;49.050;9.250;2023-02-22T02:16:56;98638.53;;;6.44;87.35
5455;BME280;2750;49.050;9.250;2023-02-22T02:22:12;98623.75;;;6.24;87.71
5455;BME280;2750;49.050;9.250;2023-02-22T02:27:19;98620.44;;;5.93;90.06
5455;BME280;2750;49.050;9.250;2023-02-22T02:32:32;98612.97;;;5.84;91.04
5455;BME280;2750;49.050;9.250;2023-02-22T02:37:40;98608.31;;;5.67;90.99
5455;BME280;2750;49.050;9.250;2023-02-22T02:42:52;98603.00;;;5.73;90.68
5455;BME280;2750;49.050;9.250;2023-02-22T02:47:58;98602.53;;;5.90;89.90
5455;BME280;2750;49.050;9.250;2023-02-22T02:53:04;98604.41;;;6.11;87.89
5455;BME280;2750;49.050;9.250;2023-02-22T02:58:16;98599.53;;;6.02;88.22
5455;BME280;2750;49.050;9.250;2023-02-22T03:03:34;98588.81;;;6.16;88.60
5455;BME280;2750;49.050;9.250;2023-02-22T03:08:42;98580.34;;;6.12;88.62
5455;BME280;2750;49.050;9.250;2023-02-22T03:13:50;98576.69;;;6.19;88.77
5455;BME280;2750;49.050;9.250;2023-02-22T03:19:03;98581.19;;;6.39;87.31
5455;BME280;2750;49.050;9.250;2023-02-22T03:24:13;98582.72;;;6.45;87.55
5455;BME280;2750;49.050;9.250;2023-02-22T03:29:20;98570.91;;;6.13;87.42
5455;BME280;2750;49.050;9.250;2023-02-22T03:34:27;98570.22;;;6.33;87.23
5455;BME280;2750;49.050;9.250;2023-02-22T03:39:30;98572.41;;;6.45;87.06
5455;BME280;2750;49.050;9.250;2023-02-22T03:44:33;98559.25;;;6.28;87.11
5455;BME280;2750;49.050;9.250;2023-02-22T03:49:43;98555.97;;;6.22;87.78
5455;BME280;2750;49.050;9.250;2023-02-22T03:54:46;98561.41;;;6.13;87.72
5455;BME280;2750;49.050;9.250;2023-02-22T03:59:48;98564.59;;;6.21;87.65
5455;BME280;2750;49.050;9.250;2023-02-22T04:04:51;98561.97;;;6.23;87.40
5455;BME280;2750;49.050;9.250;2023-02-22T04:09:53;98555.03;;;6.25;86.76
5455;BME280;2750;49.050;9.250;2023-02-22T04:14:54;98570.47;;;6.25;87.51
5455;BME280;2750;49.050;9.250;2023-02-22T04:19:57;98568.59;;;6.30;86.65
5455;BME280;2750;49.050;9.250;2023-02-22T04:24:59;98563.00;;;6.17;86.37
5455;BME280;2750;49.050;9.250;2023-02-22T04:30:00;98561.22;;;6.19;86.64
5455;BME280;2750;49.050;9.250;2023-02-22T04:35:04;98552.69;;;6.17;86.06
5455;BME280;2750;49.050;9.250;2023-02-22T04:40:07;98543.97;;;6.21;86.20
5455;BME280;2750;49.050;9.250;2023-02-22T04:45:11;98558.75;;;5.90;86.31
5455;BME280;2750;49.050;9.250;2023-02-22T04:50:16;98557.41;;;5.77;87.70
5455;BME280;2750;49.050;9.250;2023-02-22T04:55:18;98555.53;;;5.54;87.95
5455;BME280;2750;49.050;9.250;2023-02-22T05:00:20;98548.19;;;5.42;88.90
5455;BME280;2750;49.050;9.250;2023-02-22T05:05:23;98549.59;;;5.24;89.35
5455;BME280;2750;49.050;9.250;2023-02-22T05:10:25;98555.19;;;5.08;92.56
5455;BME280;2750;49.050;9.250;2023-02-22T05:15:26;98552.00;;;5.58;90.96
5455;BME280;2750;49.050;9.250;2023-02-22T05:20:31;98535.03;;;5.79;89.40
5455;BME280;2750;49.050;9.250;2023-02-22T05:25:33;98546.88;;;5.86;88.35
5455;BME280;2750;49.050;9.250;2023-02-22T05:30:35;98538.41;;;5.81;89.41
5455;BME280;2750;49.050;9.250;2023-02-22T05:35:40;98537.84;;;5.99;89.91
5455;BME280;2750;49.050;9.250;2023-02-22T05:40:42;98541.91;;;6.06;89.85
5455;BME280;2750;49.050;9.250;2023-02-22T05:45:44;98536.47;;;6.15;88.84
5455;BME280;2750;49.050;9.250;2023-02-22T05:50:47;98530.50;;;6.13;87.75
5455;BME280;2750;49.050;9.250;2023-02-22T05:55:49;98541.06;;;6.06;87.31
5455;BME280;2750;49.050;9.250;2023-02-22T06:00:51;98535.88;;;6.07;87.18
5455;BME280;2750;49.050;9.250;2023-02-22T06:05:54;98539.06;;;5.89;88.03
5455;BME280;2750;49.050;9.250;2023-02-22T06:10:55;98545.66;;;5.98;87.66
5455;BME280;2750;49.050;9.250;2023-02-22T06:15:57;98534.69;;;5.91;86.92
5455;BME280;2750;49.050;9.250;2023-02-22T06:21:00;98540.31;;;6.02;86.88
5455;BME280;2750;49.050;9.250;2023-02-22T06:26:02;98534.97;;;5.82;87.50
5455;BME280;2750;49.050;9.250;2023-02-22T06:31:03;98553.63;;;5.90;87.57
5455;BME280;2750;49.050;9.250;2023-02-22T06:36:08;98551.72;;;5.95;87.57
5455;BME280;2750;49.050;9.250;2023-02-22T06:41:09;98553.41;;;5.96;87.25
5455;BME280;2750;49.050;9.250;2023-02-22T06:46:11;98561.72;;;6.04;87.77
5455;BME280;2750;49.050;9.250;2023-02-22T06:51:14;98565.28;;;6.27;87.48
5455;BME280;2750;49.050;9.250;2023-02-22T06:56:16;98575.97;;;6.41;88.58
5455;BME280;2750;49.050;9.250;2023-02-22T07:01:18;98573.03;;;6.76;87.13
5455;BME280;2750;49.050;9.250;2023-02-22T07:06:21;98578.41;;;6.95;86.63
5455;BME280;2750;49.050;9.250;2023-02-22T07:11:23;98583.41;;;7.22;86.85
5455;BME280;2750;49.050;9.250;2023-02-22T07:16:24;98588.91;;;7.37;86.62
5455;BME280;2750;49.050;9.250;2023-02-22T07:21:28;98587.31;;;7.56;86.62
5455;BME280;2750;49.050;9.250;2023-02-22T07:26:30;98586.59;;;7.52;85.56
5455;BME280;2750;49.050;9.250;2023-02-22T07:31:34;98599.19;;;7.83;86.37
5455;BME280;2750;49.050;9.250;2023-02-22T07:36:37;98595.88;;;8.23;86.83
5455;BME280;2750;49.050;9.250;2023-02-22T07:41:38;98588.00;;;8.88;86.31
5455;BME280;2750;49.050;9.250;2023-02-22T07:46:40;98592.69;;;8.16;84.49
5455;BME280;2750;49.050;9.250;2023-02-22T07:51:43;98594.88;;;8.69;85.23
5455;BME280;2750;49.050;9.250;2023-02-22T07:56:45;98586.53;;;9.22;84.48
5455;BME280;2750;49.050;9.250;2023-02-22T08:01:48;98581.03;;;9.48;82.53
5455;BME280;2750;49.050;9.250;2023-02-22T08:06:51;98591.91;;;9.36;82.55
5455;BME280;2750;49.050;9.250;2023-02-22T08:11:53;98585.66;;;9.02;82.94
5455;BME280;2750;49.050;9.250;2023-02-22T08:16:54;98587.34;;;8.83;86.23
5455;BME280;2750;49.050;9.250;2023-02-22T08:21:57;98586.97;;;8.92;86.04
5455;BME280;2750;49.050;9.250;2023-02-22T08:26:59;98585.03;;;9.16;86.31
5455;BME280;2750;49.050;9.250;2023-02-22T08:32:01;98586.88;;;9.70;84.62
5455;BME280;2750;49.050;9.250;2023-02-22T08:37:04;98590.56;;;10.21;82.71
5455;BME280;2750;49.050;9.250;2023-02-22T08:42:06;98585.41;;;10.72;81.40
5455;BME280;2750;49.050;9.250;2023-02-22T08:47:08;98572.13;;;11.44;79.40
5455;BME280;2750;49.050;9.250;2023-02-22T08:52:11;98584.78;;;11.50;78.50
5455;BME280;2750;49.050;9.250;2023-02-22T08:57:13;98575.88;;;11.71;77.71
5455;BME280;2750;49.050;9.250;2023-02-22T09:02:17;98570.75;;;12.01;76.88
5455;BME280;2750;49.050;9.250;2023-02-22T09:07:20;98572.97;;;12.23;76.54
5455;BME280;2750;49.050;9.250;2023-02-22T09:12:22;98569.56;;;12.07;77.64
5455;BME280;2750;49.050;9.250;2023-02-22T09:17:24;98564.50;;;12.19;77.80
5455;BME280;2750;49.050;9.250;2023-02-22T09:22:27;98569.13;;;12.30;77.16
5455;BME280;2750;49.050;9.250;2023-02-22T09:27:28;98562.66;;;12.51;77.35
5455;BME280;2750;49.050;9.250;2023-02-22T09:32:30;98554.47;;;12.57;76.97
5455;BME280;2750;49.050;9.250;2023-02-22T09:37:33;98554.59;;;12.56;77.57
5455;BME280;2750;49.050;9.250;2023-02-22T09:42:41;98548.34;;;13.02;76.89
5455;BME280;2750;49.050;9.250;2023-02-22T09:47:49;98546.53;;;14.00;74.21
5455;BME280;2750;49.050;9.250;2023-02-22T09:52:59;98528.16;;;14.55;72.63
5455;BME280;2750;49.050;9.250;2023-02-22T09:58:12;98525.88;;;15.14;71.35
5455;BME280;2750;49.050;9.250;2023-02-22T10:03:19;98532.91;;;15.62;71.20
5455;BME280;2750;49.050;9.250;2023-02-22T10:08:27;98523.13;;;17.28;67.41
5455;BME280;2750;49.050;9.250;2023-02-22T10:13:35;98514.13;;;17.75;64.59
5455;BME280;2750;49.050;9.250;2023-02-22T10:18:52;98522.63;;;18.10;63.11
5455;BME280;2750;49.050;9.250;2023-02-22T10:24:04;98508.44;;;17.70;60.75
5455;BME280;2750;49.050;9.250;2023-02-22T10:29:15;98509.25;;;17.37;61.95
5455;BME280;2750;49.050;9.250;2023-02-22T10:34:24;98504.84;;;17.59;62.31
5455;BME280;2750;49.050;9.250;2023-02-22T10:39:31;98500.44;;;19.27;59.59
5455;BME280;2750;49.050;9.250;2023-02-22T10:44:33;98496.25;;;19.55;58.21
5455;BME280;2750;49.050;9.250;2023-02-22T10:49:36;98489.56;;;18.60;58.57
5455;BME280;2750;49.050;9.250;2023-02-22T10:54:44;98486.91;;;20.10;57.79
5455;BME280;2750;49.050;9.250;2023-02-22T10:59:48;98484.00;;;20.51;56.94
5455;BME280;2750;49.050;9.250;2023-02-22T11:04:52;98483.34;;;19.42;57.04
5455;BME280;2750;49.050;9.250;2023-02-22T11:09:57;98477.31;;;18.49;60.72
5455;BME280;2750;49.050;9.250;2023-02-22T11:15:26;98468.81;;;18.57;60.04
5455;BME280;2750;49.050;9.250;2023-02-22T11:20:30;98473.22;;;19.07;58.44
5455;BME280;2750;49.050;9.250;2023-02-22T11:25:37;98457.38;;;18.47;60.41
5455;BME280;2750;49.050;9.250;2023-02-22T11:30:42;98450.78;;;18.52;59.45
5455;BME280;2750;49.050;9.250;2023-02-22T11:35:50;98447.13;;;18.95;59.08
5455;BME280;2750;49.050;9.250;2023-02-22T11:41:11;98450.59;;;18.65;59.47
5455;BME280;2750;49.050;9.250;2023-02-22T11:46:17;98444.97;;;19.09;58.93
5455;BME280;2750;49.050;9.250;2023-02-22T11:51:35;98444.59;;;19.14;58.69
5455;BME280;2750;49.050;9.250;2023-02-22T11:56:44;98432.56;;;18.19;61.13
5455;BME280;2750;49.050;9.250;2023-02-22T12:01:51;98425.41;;;18.42;60.93
5455;BME280;2750;49.050;9.250;2023-02-22T12:07:02;98417.09;;;19.28;59.35
5455;BME280;2750;49.050;9.250;2023-02-22T12:12:18;98414.56;;;19.85;59.02
5455;BME280;2750;49.050;9.250;2023-02-22T12:17:33;98407.13;;;19.41;59.46
5455;BME280;2750;49.050;9.250;2023-02-22T12:22:46;98404.13;;;19.65;60.05
5455;BME280;2750;49.050;9.250;2023-02-22T12:27:56;98393.34;;;19.77;59.11
5455;BME280;2750;49.050;9.250;2023-02-22T12:33:02;98398.22;;;18.83;60.59
5455;BME280;2750;49.050;9.250;2023-02-22T12:38:10;98392.75;;;19.05;60.45
5455;BME280;2750;49.050;9.250;2023-02-22T12:43:19;98389.41;;;18.63;61.56
5455;BME280;2750;49.050;9.250;2023-02-22T12:48:30;98397.34;;;18.01;61.74
5455;BME280;2750;49.050;9.250;2023-02-22T12:53:37;98392.63;;;17.63;63.02
5455;BME280;2750;49.050;9.250;2023-02-22T12:58:47;98388.19;;;17.63;63.51
5455;BME280;2750;49.050;9.250;2023-02-22T13:03:49;98390.16;;;17.39;64.67
5455;BME280;2750;49.050;9.250;2023-02-22T13:09:04;98387.59;;;17.60;64.42
5455;BME280;2750;49.050;9.250;2023-02-22T13:14:27;98387.22;;;17.64;63.45
5455;BME280;2750;49.050;9.250;2023-02-22T13:19:37;98380.41;;;17.94;62.97
5455;BME280;2750;49.050;9.250;2023-02-22T13:24:48;98377.19;;;18.52;61.88
5455;BME280;2750;49.050;9.250;2023-02-22T13:29:57;98382.41;;;19.13;61.04
5455;BME280;2750;49.050;9.250;2023-02-22T13:35:11;98374.34;;;19.05;59.45
5455;BME280;2750;49.050;9.250;2023-02-22T13:40:36;98371.41;;;20.15;58.02
5455;BME280;2750;49.050;9.250;2023-02-22T13:46:01;98362.00;;;20.96;56.61
5455;BME280;2750;49.050;9.250;2023-02-22T13:51:12;98351.88;;;20.55;56.97
5455;BME280;2750;49.050;9.250;2023-02-22T13:56:14;98356.59;;;20.61;57.39
5455;BME280;2750;49.050;9.250;2023-02-22T14:01:39;98357.50;;;20.32;57.53
5455;BME280;2750;49.050;9.250;2023-02-22T14:06:41;98350.16;;;20.26;57.85
5455;BME280;2750;49.050;9.250;2023-02-22T14:11:43;98353.59;;;20.46;58.13
5455;BME280;2750;49.050;9.250;2023-02-22T14:17:16;98353.59;;;19.02;59.75
5455;BME280;2750;49.050;9.250;2023-02-22T14:22:24;98348.63;;;19.18;59.30
5455;BME280;2750;49.050;9.250;2023-02-22T14:27:38;98350.50;;;18.78;60.12
5455;BME280;2750;49.050;9.250;2023-02-22T14:32:41;98348.19;;;18.63;61.23
5455;BME280;2750;49.050;9.250;2023-02-22T14:37:47;98349.13;;;18.32;61.31
5455;BME280;2750;49.050;9.250;2023-02-22T14:42:59;98355.94;;;17.73;62.84
5455;BME280;2750;49.050;9.250;2023-02-22T14:48:07;98350.94;;;17.70;63.29
5455;BME280;2750;49.050;9.250;2023-02-22T14:53:22;98355.28;;;17.16;63.78
5455;BME280;2750;49.050;9.250;2023-02-22T14:58:29;98350.81;;;17.71;62.99
5455;BME280;2750;49.050;9.250;2023-02-22T15:03:36;98353.50;;;18.73;61.63
5455;BME280;2750;49.050;9.250;2023-02-22T15:08:37;98341.59;;;18.48;61.33
5455;BME280;2750;49.050;9.250;2023-02-22T15:13:48;98341.09;;;18.24;62.53
5455;BME280;2750;49.050;9.250;2023-02-22T15:18:53;98351.97;;;18.20;62.21
5455;BME280;2750;49.050;9.250;2023-02-22T15:24:00;98350.00;;;17.71;63.44
5455;BME280;2750;49.050;9.250;2023-02-22T15:29:07;98350.16;;;17.79;63.58
5455;BME280;2750;49.050;9.250;2023-02-22T15:34:17;98354.34;;;17.81;63.86
5455;BME280;2750;49.050;9.250;2023-02-22T15:39:25;98346.53;;;18.11;62.96
5455;BME280;2750;49.050;9.250;2023-02-22T15:44:33;98349.88;;;18.44;62.38
5455;BME280;2750;49.050;9.250;2023-02-22T15:49:36;98345.22;;;18.47;62.34
5455;BME280;2750;49.050;9.250;2023-02-22T15:54:40;98346.66;;;18.31;62.41
5455;BME280;2750;49.050;9.250;2023-02-22T15:59:46;98348.00;;;18.25;62.72
5455;BME280;2750;49.050;9.250;2023-02-22T16:04:56;98357.19;;;18.40;62.55
5455;BME280;2750;49.050;9.250;2023-02-22T16:09:58;98353.78;;;18.19;63.39
5455;BME280;2750;49.050;9.250;2023-02-22T16:15:14;98351.09;;;17.89;63.70
5455;BME280;2750;49.050;9.250;2023-02-22T16:20:33;98353.63;;;17.79;64.35
5455;BME280;2750;49.050;9.250;2023-02-22T16:25:37;98354.28;;;17.72;64.83
5455;BME280;2750;49.050;9.250;2023-02-22T16:30:38;98351.66;;;17.40;65.53
5455;BME280;2750;49.050;9.250;2023-02-22T16:35:42;98350.63;;;17.63;65.29
5455;BME280;2750;49.050;9.250;2023-02-22T16:40:52;98362.13;;;17.40;65.66
5455;BME280;2750;49.050;9.250;2023-02-22T16:45:54;98366.56;;;16.74;67.47
5455;BME280;2750;49.050;9.250;2023-02-22T16:50:59;98371.63;;;15.50;72.29
5455;BME280;2750;49.050;9.250;2023-02-22T16:56:03;98364.53;;;15.52;72.13
5455;BME280;2750;49.050;9.250;2023-02-22T17:01:05;98366.91;;;15.55;70.85
5455;BME280;2750;49.050;9.250;2023-02-22T17:06:08;98374.16;;;15.39;71.20
5455;BME280;2750;49.050;9.250;2023-02-22T17:11:11;98373.72;;;14.72;73.29
5455;BME280;2750;49.050;9.250;2023-02-22T17:16:14;98381.56;;;14.72;73.02
5455;BME280;2750;49.050;9.250;2023-02-22T17:21:17;98382.94;;;14.27;74.41
5455;BME280;2750;49.050;9.250;2023-02-22T17:26:19;98386.69;;;14.11;75.26
5455;BME280;2750;49.050;9.250;2023-02-22T17:31:21;98394.63;;;14.09;75.02
5455;BME280;2750;49.050;9.250;2023-02-22T17:36:25;98398.94;;;13.71;75.97
5455;BME280;2750;49.050;9.250;2023-02-22T17:41:27;98412.78;;;13.04;76.73
5455;BME280;2750;49.050;9.250;2023-02-22T17:46:28;98410.16;;;13.32;75.56
5455;BME280;2750;49.050;9.250;2023-02-22T17:51:31;98421.47;;;13.72;74.03
5455;BME280;2750;49.050;9.250;2023-02-22T17:56:33;98409.75;;;14.04;72.72
5455;BME280;2750;49.050;9.250;2023-02-22T18:01:34;98414.94;;;13.92;72.84
5455;BME280;2750;49.050;9.250;2023-02-22T18:06:37;98417.72;;;14.28;72.51
5455;BME280;2750;49.050;9.250;2023-02-22T18:11:39;98415.34;;;14.50;71.34
5455;BME280;2750;49.050;9.250;2023-02-22T18:16:40;98418.47;;;14.55;71.26
5455;BME280;2750;49.050;9.250;2023-02-22T18:21:43;98420.91;;;13.94;73.11
5455;BME280;2750;49.050;9.250;2023-02-22T18:26:45;98428.00;;;13.38;74.80
5455;BME280;2750;49.050;9.250;2023-02-22T18:31:46;98423.47;;;13.54;74.14
5455;BME280;2750;49.050;9.250;2023-02-22T18:36:49;98420.78;;;13.15;75.35
5455;BME280;2750;49.050;9.250;2023-02-22T18:41:51;98418.81;;;13.32;75.03
5455;BME280;2750;49.050;9.250;2023-02-22T18:46:53;98424.38;;;13.67;73.90
5455;BME280;2750;49.050;9.250;2023-02-22T18:51:56;98422.13;;;13.88;73.15
5455;BME280;2750;49.050;9.250;2023-02-22T18:56:58;98417.34;;;13.95;72.74
5455;BME280;2750;49.050;9.250;2023-02-22T19:02:01;98416.59;;;13.93;73.27
5455;BME280;2750;49.050;9.250;2023-02-22T19:07:03;98421.34;;;13.73;74.38
5455;BME280;2750;49.050;9.250;2023-02-22T19:12:05;98410.84;;;13.87;74.37
5455;BME280;2750;49.050;9.250;2023-02-22T19:17:07;98423.16;;;13.85;74.54
5455;BME280;2750;49.050;9.250;2023-02-22T19:22:10;98429.84;;;13.89;74.38
5455;BME280;2750;49.050;9.250;2023-02-22T19:27:14;98429.66;;;13.93;74.45
5455;BME280;2750;49.050;9.250;2023-02-22T19:32:15;98435.16;;;13.88;74.81
5455;BME280;2750;49.050;9.250;2023-02-22T19:37:19;98431.53;;;13.91;75.03
5455;BME280;2750;49.050;9.250;2023-02-22T19:42:22;98431.41;;;13.79;74.48
5455;BME280;2750;49.050;9.250;2023-02-22T19:47:23;98433.53;;;13.60;76.08
5455;BME280;2750;49.050;9.250;2023-02-22T19:52:26;98437.97;;;13.85;75.50
5455;BME280;2750;49.050;9.250;2023-02-22T19:57:28;98438.81;;;13.85;75.87
5455;BME280;2750;49.050;9.250;2023-02-22T20:02:30;98433.00;;;13.95;75.10
5455;BME280;2750;49.050;9.250;2023-02-22T20:07:33;98438.94;;;13.16;77.07
5455;BME280;2750;49.050;9.250;2023-02-22T20:12:35;98443.25;;;13.44;76.70
5455;BME280;2750;49.050;9.250;2023-02-22T20:17:36;98441.38;;;13.46;77.04
5455;BME280;2750;49.050;9.250;2023-02-22T20:22:39;98439.94;;;13.81;75.89
5455;BME280;2750;49.050;9.250;2023-02-22T20:27:41;98439.31;;;13.78;76.22
5455;BME280;2750;49.050;9.250;2023-02-22T20:32:42;98438.13;;;13.57;77.00
5455;BME280;2750;49.050;9.250;2023-02-22T20:37:46;98440.22;;;13.64;76.83
5455;BME280;2750;49.050;9.250;2023-02-22T20:42:47;98442.66;;;13.53;76.94
5455;BME280;2750;49.050;9.250;2023-02-22T20:47:49;98447.03;;;13.12;78.91
5455;BME280;2750;49.050;9.250;2023-02-22T20:52:52;98442.16;;;13.34;78.65
5455;BME280;2750;49.050;9.250;2023-02-22T20:57:54;98433.84;;;13.41;78.52
5455;BME280;2750;49.050;9.250;2023-02-22T21:02:55;98440.72;;;13.30;78.35
5455;BME280;2750;49.050;9.250;2023-02-22T21:07:58;98448.53;;;13.16;79.13
5455;BME280;2750;49.050;9.250;2023-02-22T21:13:02;98433.53;;;13.19;79.23
5455;BME280;2750;49.050;9.250;2023-02-22T21:18:04;98444.44;;;13.26;79.33
5455;BME280;2750;49.050;9.250;2023-02-22T21:23:08;98446.41;;;12.80;81.59
5455;BME280;2750;49.050;9.250;2023-02-22T21:28:10;98434.41;;;12.91;81.66
5455;BME280;2750;49.050;9.250;2023-02-22T21:33:12;98445.94;;;12.87;82.18
5455;BME280;2750;49.050;9.250;2023-02-22T21:38:16;98445.16;;;12.57;83.02
5455;BME280;2750;49.050;9.250;2023-02-22T21:43:20;98451.06;;;12.61;83.21
5455;BME280;2750;49.050;9.250;2023-02-22T21:48:22;98451.97;;;12.88;82.23
5455;BME280;2750;49.050;9.250;2023-02-22T21:53:27;98439.22;;;13.26;80.13
5455;BME280;2750;49.050;9.250;2023-02-22T21:58:28;98449.28;;;12.89;79.84
5455;BME280;2750;49.050;9.250;2023-02-22T22:03:31;98443.72;;;13.10;80.05
5455;BME280;2750;49.050;9.250;2023-02-22T22:08:34;98443.50;;;12.99;80.54
5455;BME280;2750;49.050;9.250;2023-02-22T22:13:40;98449.56;;;12.85;81.49
5455;BME280;2750;49.050;9.250;2023-02-22T22:18:43;98446.66;;;13.04;80.96
5455;BME280;2750;49.050;9.250;2023-02-22T22:23:48;98442.78;;;13.11;81.03
5455;BME280;2750;49.050;9.250;2023-02-22T22:28:56;98438.94;;;13.16;80.25
5455;BME280;2750;49.050;9.250;2023-02-22T22:33:58;98434.41;;;12.91;80.82
5455;BME280;2750;49.050;9.250;2023-02-22T22:39:02;98438.31;;;13.13;80.19
5455;BME280;2750;49.050;9.250;2023-02-22T22:44:12;98438.50;;;13.10;80.89
5455;BME280;2750;49.050;9.250;2023-02-22T22:49:15;98432.94;;;12.87;83.02
5455;BME280;2750;49.050;9.250;2023-02-22T22:54:19;98443.34;;;12.87;83.34
5455;BME280;2750;49.050;9.250;2023-02-22T22:59:20;98435.50;;;13.02;82.62
5455;BME280;2750;49.050;9.250;2023-02-22T23:04:22;98434.97;;;13.11;81.86
5455;BME280;2750;49.050;9.250;2023-02-22T23:09:28;98437.94;;;12.90;81.11
5455;BME280;2750;49.050;9.250;2023-02-22T23:14:30;98432.56;;;12.79;81.70
5455;BME280;2750;49.050;9.250;2023-02-22T23:19:34;98436.06;;;12.92;82.71
5455;BME280;2750;49.050;9.250;2023-02-22T23:24:38;98439.59;;;13.06;82.22
5455;BME280;2750;49.050;9.250;2023-02-22T23:29:41;98433.19;;;12.69;81.78
5455;BME280;2750;49.050;9.250;2023-02-22T23:34:46;98433.25;;;12.95;81.86
5455;BME280;2750;49.050;9.250;2023-02-22T23:39:50;98429.72;;;13.25;81.30
5455;BME280;2750;49.050;9.250;2023-02-22T23:44:51;98442.41;;;13.44;81.10
5455;BME280;2750;49.050;9.250;2023-02-22T23:49:53;98452.41;;;13.37;81.01
5455;BME280;2750;49.050;9.250;2023-02-22T23:54:56;98448.16;;;12.93;82.27
5455;BME280;2750;49.050;9.250;2023-02-22T23:59:57;98445.91;;;13.02;82.60
